Time;durP1;ratioP1;P1;durP2;ratioP2;P2;SDS_P1;SDS_P2;PMS_P1;PMS_P2;Temp;Humidity;BMP_temperature;BMP_pressure;BME280_temperature;BME280_humidity;BME280_pressure;Samples;Min_cycle;Max_cycle;Signal;HPM_P1;HPM_P2
2023/04/19 00:00:39;;;;;;;0.00;0.00;;;8.70;77.30;;;;;;4936898;28;20059;-62
2023/04/19 00:03:06;;;;;;;0.00;0.00;;;8.70;77.40;;;;;;4952720;28;20055;-61
2023/04/19 00:05:32;;;;;;;0.00;0.00;;;8.70;77.80;;;;;;4950649;28;20736;-62
2023/04/19 00:07:57;;;;;;;0.00;0.00;;;8.70;77.70;;;;;;4952843;28;20032;-62
2023/04/19 00:10:23;;;;;;;0.00;0.00;;;8.60;77.60;;;;;;4953713;28;20130;-62
2023/04/19 00:12:49;;;;;;;0.00;0.00;;;8.60;77.70;;;;;;4940072;28;20695;-63
2023/04/19 00:15:14;;;;;;;0.00;0.00;;;8.70;77.90;;;;;;4953623;28;20052;-62
2023/04/19 00:17:40;;;;;;;0.00;0.00;;;8.70;77.40;;;;;;4953765;28;20118;-62
2023/04/19 00:20:07;;;;;;;0.00;0.00;;;8.60;77.20;;;;;;4921228;28;20058;-62
2023/04/19 00:22:33;;;;;;;0.00;0.00;;;8.70;77.10;;;;;;4936676;28;20422;-62
2023/04/19 00:24:58;;;;;;;1.95;0.93;;;8.60;77.10;;;;;;4953152;28;20039;-62
2023/04/19 00:27:24;;;;;;;0.00;0.00;;;8.60;77.10;;;;;;4953395;28;20393;-62
2023/04/19 00:29:50;;;;;;;0.00;0.00;;;8.60;77.30;;;;;;4953675;28;20047;-62
2023/04/19 00:32:15;;;;;;;0.10;0.10;;;8.60;77.50;;;;;;4953545;28;20050;-63
2023/04/19 00:34:41;;;;;;;0.10;0.10;;;8.60;77.50;;;;;;4941915;28;20048;-63
2023/04/19 00:37:08;;;;;;;0.00;0.00;;;8.60;77.60;;;;;;4934346;29;20048;-63
2023/04/19 00:39:33;;;;;;;0.00;0.00;;;8.60;77.60;;;;;;4949218;28;20040;-62
2023/04/19 00:42:00;;;;;;;0.00;0.00;;;8.60;77.40;;;;;;4953307;28;20416;-62
2023/04/19 00:44:25;;;;;;;0.00;0.00;;;8.60;77.70;;;;;;4952433;28;20058;-62
2023/04/19 00:46:51;;;;;;;0.00;0.00;;;8.60;78.10;;;;;;4953042;28;20413;-62
2023/04/19 00:49:19;;;;;;;0.00;0.00;;;8.60;78.10;;;;;;4919836;28;20536;-62
2023/04/19 00:51:45;;;;;;;0.00;0.00;;;8.60;77.70;;;;;;4951620;28;20048;-62
2023/04/19 00:54:13;;;;;;;0.00;0.00;;;8.60;77.80;;;;;;4933554;29;20063;-62
2023/04/19 00:56:39;;;;;;;0.05;0.05;;;8.60;77.60;;;;;;4936171;28;20055;-64
2023/04/19 00:59:06;;;;;;;0.00;0.00;;;8.60;77.80;;;;;;4952946;28;20419;-63
2023/04/19 01:01:32;;;;;;;0.03;0.03;;;8.60;77.60;;;;;;4953115;28;20142;-62
2023/04/19 01:04:00;;;;;;;0.00;0.00;;;8.60;77.40;;;;;;4951960;28;20043;-62
2023/04/19 01:06:29;;;;;;;0.00;0.00;;;8.50;77.20;;;;;;4952317;28;20599;-62
2023/04/19 01:08:55;;;;;;;0.10;0.10;;;8.50;77.30;;;;;;4951488;28;20558;-62
2023/04/19 01:11:22;;;;;;;0.00;0.00;;;8.50;77.20;;;;;;4952993;28;20094;-63
2023/04/19 01:13:48;;;;;;;0.10;0.10;;;8.50;77.60;;;;;;4947079;28;20493;-63
2023/04/19 01:16:14;;;;;;;0.00;0.00;;;8.50;77.90;;;;;;4933138;29;20043;-62
2023/04/19 01:18:40;;;;;;;0.10;0.10;;;8.50;78.10;;;;;;4943279;28;20055;-62
2023/04/19 01:21:06;;;;;;;0.00;0.00;;;8.50;78.30;;;;;;4952735;28;20062;-61
2023/04/19 01:23:32;;;;;;;0.00;0.00;;;8.40;78.00;;;;;;4934606;28;20098;-62
2023/04/19 01:26:00;;;;;;;0.00;0.00;;;8.50;78.10;;;;;;4943894;28;20130;-62
2023/04/19 01:28:25;;;;;;;0.00;0.00;;;8.40;78.10;;;;;;4951714;28;20432;-62
2023/04/19 01:30:52;;;;;;;0.00;0.00;;;8.40;77.80;;;;;;4952137;28;20051;-62
2023/04/19 01:33:19;;;;;;;0.00;0.00;;;8.40;77.70;;;;;;4951681;28;20055;-62
2023/04/19 01:35:45;;;;;;;0.00;0.00;;;8.40;78.00;;;;;;4952339;29;20046;-62
2023/04/19 01:38:11;;;;;;;0.00;0.00;;;8.40;77.90;;;;;;4952416;28;20049;-62
2023/04/19 01:40:37;;;;;;;0.05;0.05;;;8.40;78.10;;;;;;4953009;28;20059;-62
2023/04/19 01:43:02;;;;;;;0.38;0.38;;;8.30;78.10;;;;;;4952094;28;20043;-62
2023/04/19 01:45:28;;;;;;;0.00;0.00;;;8.30;78.10;;;;;;4951178;29;20079;-62
2023/04/19 01:47:54;;;;;;;0.10;0.10;;;8.30;78.10;;;;;;4952345;29;20056;-62
2023/04/19 01:50:20;;;;;;;0.00;0.00;;;8.30;78.00;;;;;;4952016;29;20126;-62
2023/04/19 01:52:46;;;;;;;0.10;0.10;;;8.30;77.90;;;;;;4951999;28;20122;-63
2023/04/19 01:55:12;;;;;;;0.00;0.00;;;8.20;77.70;;;;;;4950831;28;20062;-62
2023/04/19 01:57:37;;;;;;;0.00;0.00;;;8.20;77.50;;;;;;4919285;29;20051;-62
2023/04/19 02:00:03;;;;;;;0.05;0.05;;;8.20;77.40;;;;;;4951939;29;20510;-62
2023/04/19 02:02:29;;;;;;;0.00;0.00;;;8.30;77.50;;;;;;4934293;29;20131;-62
2023/04/19 02:04:54;;;;;;;0.05;0.05;;;8.30;77.60;;;;;;4950273;28;20047;-62
2023/04/19 02:07:20;;;;;;;0.00;0.00;;;8.20;77.60;;;;;;4934386;29;20126;-62
2023/04/19 02:09:45;;;;;;;0.08;0.08;;;8.20;77.60;;;;;;4951589;28;20046;-62
2023/04/19 02:12:11;;;;;;;0.05;0.05;;;8.20;77.60;;;;;;4951657;29;20544;-62
2023/04/19 02:14:36;;;;;;;0.10;0.10;;;8.30;77.80;;;;;;4950613;28;20043;-62
2023/04/19 02:17:02;;;;;;;0.10;0.10;;;8.20;77.80;;;;;;4951305;28;20058;-63
2023/04/19 02:19:28;;;;;;;0.08;0.08;;;8.20;77.80;;;;;;4951222;29;20122;-62
2023/04/19 02:21:56;;;;;;;0.98;0.85;;;8.20;77.70;;;;;;4934720;29;20057;-63
2023/04/19 02:24:23;;;;;;;0.00;0.00;;;8.20;77.90;;;;;;4950582;29;20074;-63
2023/04/19 02:26:49;;;;;;;2.00;0.65;;;8.20;77.90;;;;;;4951314;29;20054;-62
2023/04/19 02:29:15;;;;;;;0.20;0.20;;;8.10;78.40;;;;;;4951045;28;20047;-62
2023/04/19 02:31:41;;;;;;;0.00;0.00;;;8.10;78.30;;;;;;4951388;28;20058;-63
2023/04/19 02:34:07;;;;;;;0.93;0.77;;;8.10;78.30;;;;;;4950856;28;20416;-62
2023/04/19 02:36:32;;;;;;;0.10;0.10;;;8.00;78.20;;;;;;4950831;28;20100;-62
2023/04/19 02:38:58;;;;;;;0.25;0.25;;;8.00;78.30;;;;;;4951247;28;20043;-62
2023/04/19 02:41:23;;;;;;;0.00;0.00;;;7.90;78.70;;;;;;4951209;29;20054;-62
2023/04/19 02:43:49;;;;;;;0.00;0.00;;;7.80;78.90;;;;;;4950489;29;21528;-63
2023/04/19 02:46:15;;;;;;;0.50;0.50;;;7.80;78.90;;;;;;4931621;29;20055;-62
2023/04/19 02:48:40;;;;;;;0.00;0.00;;;7.80;79.20;;;;;;4951464;28;20039;-63
2023/04/19 02:51:06;;;;;;;0.32;0.32;;;7.70;78.90;;;;;;4950909;28;20139;-62
2023/04/19 02:53:32;;;;;;;0.00;0.00;;;7.80;79.10;;;;;;4950755;29;20150;-62
2023/04/19 02:55:58;;;;;;;0.00;0.00;;;7.80;79.40;;;;;;4950416;28;20059;-63
2023/04/19 02:58:23;;;;;;;0.10;0.10;;;7.80;80.10;;;;;;4933690;28;20047;-62
2023/04/19 03:00:49;;;;;;;0.10;0.10;;;7.70;80.20;;;;;;4950988;29;20484;-62
2023/04/19 03:03:14;;;;;;;0.10;0.10;;;7.70;80.20;;;;;;4950143;29;20090;-63
2023/04/19 03:05:40;;;;;;;0.03;0.03;;;7.70;79.70;;;;;;4950700;28;20035;-62
2023/04/19 03:08:06;;;;;;;0.10;0.10;;;7.70;79.90;;;;;;4950537;28;20497;-62
2023/04/19 03:10:31;;;;;;;0.00;0.00;;;7.70;79.60;;;;;;4950380;29;20043;-63
2023/04/19 03:12:57;;;;;;;0.00;0.00;;;7.60;79.50;;;;;;4934281;28;20041;-62
2023/04/19 03:15:22;;;;;;;0.05;0.05;;;7.70;79.50;;;;;;4951799;28;20550;-62
2023/04/19 03:17:48;;;;;;;0.00;0.00;;;7.70;79.70;;;;;;4954520;28;20078;-62
2023/04/19 03:20:15;;;;;;;0.00;0.00;;;7.60;79.80;;;;;;4937899;28;20103;-63
2023/04/19 03:22:41;;;;;;;0.00;0.00;;;7.60;79.70;;;;;;4955112;28;20102;-62
2023/04/19 03:25:07;;;;;;;0.08;0.08;;;7.60;79.30;;;;;;4937158;29;20432;-63
2023/04/19 03:27:36;;;;;;;0.25;0.20;;;7.60;79.80;;;;;;4937370;29;20058;-62
2023/04/19 03:30:01;;;;;;;0.00;0.00;;;7.60;79.70;;;;;;4921566;28;20055;-62
2023/04/19 03:32:27;;;;;;;0.00;0.00;;;7.60;79.80;;;;;;4954462;28;20055;-62
2023/04/19 03:34:52;;;;;;;0.10;0.10;;;7.50;79.80;;;;;;4953809;29;20138;-62
2023/04/19 03:37:18;;;;;;;0.00;0.00;;;7.60;79.60;;;;;;4937213;29;20094;-62
2023/04/19 03:39:44;;;;;;;0.00;0.00;;;7.50;79.50;;;;;;4954870;29;20054;-63
2023/04/19 03:42:09;;;;;;;0.00;0.00;;;7.50;79.40;;;;;;4954320;29;20086;-62
2023/04/19 03:44:35;;;;;;;0.00;0.00;;;7.50;79.40;;;;;;4953538;28;20186;-62
2023/04/19 03:47:00;;;;;;;0.00;0.00;;;7.40;79.20;;;;;;4954747;29;20050;-62
2023/04/19 03:49:26;;;;;;;0.70;0.70;;;7.40;79.20;;;;;;4954545;28;20047;-62
2023/04/19 03:51:51;;;;;;;12.85;2.78;;;7.40;79.20;;;;;;4936963;29;20055;-62
2023/04/19 03:54:17;;;;;;;0.10;0.10;;;7.40;78.80;;;;;;4920700;29;20047;-63
2023/04/19 03:56:42;;;;;;;0.08;0.08;;;7.30;78.80;;;;;;4954009;29;20047;-62
2023/04/19 03:59:08;;;;;;;0.00;0.00;;;7.40;78.60;;;;;;4951229;28;20054;-63
2023/04/19 04:01:40;;;;;;;0.00;0.00;;;7.30;78.40;;;;;;4953009;28;20054;-62
2023/04/19 04:04:10;;;;;;;0.00;0.00;;;7.30;78.20;;;;;;4951872;28;20055;-62
2023/04/19 04:06:36;;;;;;;0.20;0.20;;;7.30;78.00;;;;;;4953420;29;20455;-63
2023/04/19 04:09:01;;;;;;;0.00;0.00;;;7.20;77.90;;;;;;4950800;28;20043;-62
2023/04/19 04:11:27;;;;;;;0.00;0.00;;;7.20;77.60;;;;;;4953858;28;20071;-63
2023/04/19 04:13:54;;;;;;;0.15;0.15;;;7.20;77.40;;;;;;4953683;28;20054;-62
2023/04/19 04:16:20;;;;;;;0.00;0.00;;;7.20;77.30;;;;;;4953419;28;20519;-63
2023/04/19 04:18:46;;;;;;;0.10;0.10;;;7.20;77.20;;;;;;4953697;29;20035;-64
2023/04/19 04:21:11;;;;;;;0.00;0.00;;;7.20;77.20;;;;;;4952685;29;20043;-63
2023/04/19 04:23:37;;;;;;;0.00;0.00;;;7.20;77.00;;;;;;4953454;29;20043;-62
2023/04/19 04:26:04;;;;;;;0.00;0.00;;;7.20;76.80;;;;;;4954125;28;20126;-63
2023/04/19 04:28:30;;;;;;;0.10;0.10;;;7.30;76.60;;;;;;4953172;28;20074;-63
2023/04/19 04:30:56;;;;;;;0.10;0.10;;;7.20;76.30;;;;;;4951126;29;20102;-62
2023/04/19 04:33:26;;;;;;;0.03;0.03;;;7.20;76.10;;;;;;4953105;28;20539;-63
2023/04/19 04:35:53;;;;;;;0.00;0.00;;;7.10;75.70;;;;;;4953681;28;20050;-62
2023/04/19 04:38:19;;;;;;;0.30;0.30;;;7.10;75.90;;;;;;4952510;29;20098;-62
2023/04/19 04:40:54;;;;;;;0.10;0.10;;;7.10;75.70;;;;;;4952899;28;20043;-63
2023/04/19 04:43:24;;;;;;;0.00;0.00;;;7.00;75.50;;;;;;4936105;29;20047;-62
2023/04/19 04:45:50;;;;;;;0.00;0.00;;;6.90;75.60;;;;;;4953767;28;20440;-62
2023/04/19 04:48:16;;;;;;;0.00;0.00;;;6.90;75.50;;;;;;4946537;28;20138;-63
2023/04/19 04:50:43;;;;;;;0.00;0.00;;;6.90;75.60;;;;;;4945435;28;20146;-62
2023/04/19 04:53:11;;;;;;;0.00;0.00;;;6.70;75.60;;;;;;4952474;28;20071;-62
2023/04/19 04:55:36;;;;;;;0.13;0.13;;;6.70;75.70;;;;;;4950873;28;20526;-62
2023/04/19 04:58:04;;;;;;;0.52;0.45;;;6.70;75.60;;;;;;4952228;28;20055;-61
2023/04/19 05:00:30;;;;;;;0.00;0.00;;;6.70;75.70;;;;;;4931313;29;20402;-63
2023/04/19 05:02:57;;;;;;;0.00;0.00;;;6.70;75.80;;;;;;4955324;28;20094;-63
2023/04/19 05:05:22;;;;;;;0.00;0.00;;;6.60;75.90;;;;;;4919582;29;20057;-63
2023/04/19 05:07:48;;;;;;;0.45;0.45;;;6.60;76.00;;;;;;4953019;28;20129;-65
2023/04/19 05:10:13;;;;;;;0.25;0.25;;;6.70;75.90;;;;;;4928783;29;20102;-62
2023/04/19 05:12:40;;;;;;;0.05;0.05;;;6.60;76.00;;;;;;4940495;29;20039;-63
2023/04/19 05:15:06;;;;;;;0.00;0.00;;;6.60;76.00;;;;;;4944826;28;20526;-62
2023/04/19 05:17:32;;;;;;;0.00;0.00;;;6.60;76.10;;;;;;4952255;28;20051;-64
2023/04/19 05:19:57;;;;;;;0.10;0.10;;;6.60;76.00;;;;;;4919727;28;20065;-63
2023/04/19 05:22:23;;;;;;;0.00;0.00;;;6.70;76.00;;;;;;4952863;28;20043;-63
2023/04/19 05:24:49;;;;;;;0.00;0.00;;;6.60;76.00;;;;;;4952906;28;20043;-63
2023/04/19 05:27:15;;;;;;;0.00;0.00;;;6.70;76.00;;;;;;4919814;28;20053;-63
2023/04/19 05:29:43;;;;;;;0.00;0.00;;;6.70;75.90;;;;;;4952696;28;20047;-62
2023/04/19 05:32:09;;;;;;;0.00;0.00;;;6.80;75.80;;;;;;4952543;28;20039;-63
2023/04/19 05:34:35;;;;;;;0.20;0.20;;;6.80;75.80;;;;;;4953006;28;20043;-63
2023/04/19 05:37:02;;;;;;;0.00;0.00;;;6.80;75.80;;;;;;4919518;28;20055;-63
2023/04/19 05:39:27;;;;;;;0.30;0.30;;;6.80;75.60;;;;;;4951907;28;20058;-62
2023/04/19 05:41:53;;;;;;;0.68;0.68;;;6.90;75.50;;;;;;4952648;28;20050;-62
2023/04/19 05:44:19;;;;;;;0.00;0.00;;;6.90;75.20;;;;;;4952147;28;20044;-62
2023/04/19 05:46:44;;;;;;;0.10;0.10;;;6.90;74.60;;;;;;4934921;29;20035;-62
2023/04/19 05:49:10;;;;;;;0.30;0.30;;;6.90;74.50;;;;;;4951919;29;20620;-63
2023/04/19 05:51:35;;;;;;;0.00;0.00;;;7.00;74.60;;;;;;4951273;28;20043;-62
2023/04/19 05:54:02;;;;;;;0.00;0.00;;;7.00;74.70;;;;;;4934163;29;20113;-63
2023/04/19 05:56:27;;;;;;;0.00;0.00;;;7.10;74.50;;;;;;4952210;29;20043;-62
2023/04/19 05:58:55;;;;;;;0.00;0.00;;;7.10;74.20;;;;;;4952218;28;20103;-62
2023/04/19 06:01:21;;;;;;;0.00;0.00;;;7.10;74.20;;;;;;4951402;28;20067;-62
2023/04/19 06:03:46;;;;;;;0.10;0.10;;;7.20;74.30;;;;;;4948360;28;20051;-61
2023/04/19 06:06:12;;;;;;;0.05;0.05;;;7.30;74.40;;;;;;4952073;28;20500;-62
2023/04/19 06:08:37;;;;;;;0.00;0.00;;;7.30;74.20;;;;;;4951178;28;20050;-62
2023/04/19 06:11:03;;;;;;;0.57;0.57;;;7.40;74.30;;;;;;4951775;29;20082;-62
2023/04/19 06:13:28;;;;;;;0.00;0.00;;;7.50;74.20;;;;;;4949370;28;20050;-62
2023/04/19 06:15:54;;;;;;;0.00;0.00;;;7.50;74.10;;;;;;4946070;28;20057;-62
2023/04/19 06:18:19;;;;;;;0.00;0.00;;;7.60;73.90;;;;;;4949214;28;20035;-64
2023/04/19 06:20:45;;;;;;;0.00;0.00;;;7.80;75.30;;;;;;4950932;28;20043;-63
2023/04/19 06:23:11;;;;;;;0.38;0.38;;;7.80;74.10;;;;;;4941094;29;20035;-63
2023/04/19 06:25:37;;;;;;;0.00;0.00;;;7.90;74.00;;;;;;4930782;29;20055;-64
2023/04/19 06:28:03;;;;;;;0.00;0.00;;;7.90;73.50;;;;;;4932010;29;20039;-64
2023/04/19 06:30:28;;;;;;;0.10;0.10;;;8.00;73.40;;;;;;4945408;29;20046;-63
2023/04/19 06:32:54;;;;;;;0.00;0.00;;;8.00;73.20;;;;;;4943839;28;20039;-62
2023/04/19 06:35:20;;;;;;;0.20;0.20;;;8.10;73.10;;;;;;4947084;28;20043;-63
2023/04/19 06:37:45;;;;;;;0.20;0.20;;;8.10;72.50;;;;;;4944721;28;20054;-62
2023/04/19 06:40:11;;;;;;;0.00;0.00;;;8.20;71.20;;;;;;4951160;28;20592;-63
2023/04/19 06:42:37;;;;;;;0.00;0.00;;;8.30;71.70;;;;;;4951315;29;20126;-63
2023/04/19 06:45:03;;;;;;;0.10;0.10;;;8.30;71.40;;;;;;4935141;29;20575;-63
2023/04/19 06:47:29;;;;;;;0.10;0.10;;;8.40;71.80;;;;;;4949154;29;20054;-64
2023/04/19 06:49:56;;;;;;;0.00;0.00;;;8.40;71.30;;;;;;4945876;28;20039;-63
2023/04/19 06:52:21;;;;;;;0.00;0.00;;;8.50;71.30;;;;;;4945947;29;20742;-63
2023/04/19 06:54:50;;;;;;;0.00;0.00;;;8.60;70.80;;;;;;4934030;29;20055;-63
2023/04/19 06:57:17;;;;;;;0.00;0.00;;;8.60;70.90;;;;;;4950784;28;20050;-63
2023/04/19 06:59:43;;;;;;;2.30;1.17;;;8.60;69.30;;;;;;4949824;28;20060;-63
2023/04/19 07:02:08;;;;;;;0.00;0.00;;;8.70;70.20;;;;;;4950598;28;20162;-63
2023/04/19 07:04:35;;;;;;;0.08;0.08;;;8.80;70.30;;;;;;4950702;28;20137;-63
2023/04/19 07:07:02;;;;;;;0.00;0.00;;;8.90;69.80;;;;;;4950474;28;20043;-63
2023/04/19 07:09:27;;;;;;;0.00;0.00;;;8.90;69.80;;;;;;4950584;28;20138;-63
2023/04/19 07:11:53;;;;;;;0.00;0.00;;;8.90;69.40;;;;;;4947729;28;20107;-63
2023/04/19 07:14:19;;;;;;;0.00;0.00;;;9.00;68.60;;;;;;4930247;29;20075;-63
2023/04/19 07:16:45;;;;;;;0.00;0.00;;;9.10;68.00;;;;;;4944092;28;20055;-63
2023/04/19 07:19:11;;;;;;;0.00;0.00;;;9.10;68.30;;;;;;4945742;28;20047;-63
2023/04/19 07:21:38;;;;;;;0.10;0.10;;;9.20;68.70;;;;;;4949650;29;20493;-63
2023/04/19 07:24:05;;;;;;;0.00;0.00;;;9.30;68.80;;;;;;4933075;28;20051;-63
2023/04/19 07:26:31;;;;;;;0.03;0.03;;;9.30;66.80;;;;;;4949918;28;20054;-63
2023/04/19 07:28:57;;;;;;;0.00;0.00;;;9.40;65.90;;;;;;4946477;28;20044;-63
2023/04/19 07:31:24;;;;;;;2.83;0.57;;;9.40;67.00;;;;;;4950105;28;20050;-64
2023/04/19 07:33:50;;;;;;;0.00;0.00;;;9.50;66.40;;;;;;4914375;29;20052;-63
2023/04/19 07:36:15;;;;;;;0.00;0.00;;;9.60;66.20;;;;;;4934903;28;20043;-62
2023/04/19 07:38:41;;;;;;;0.00;0.00;;;9.60;67.10;;;;;;4934049;29;20048;-63
2023/04/19 07:41:07;;;;;;;0.00;0.00;;;9.60;65.50;;;;;;4929006;29;20062;-62
2023/04/19 07:43:33;;;;;;;0.00;0.00;;;9.80;65.80;;;;;;4947917;28;20039;-62
2023/04/19 07:45:59;;;;;;;0.63;0.63;;;9.70;64.00;;;;;;4947893;28;20163;-63
2023/04/19 07:48:24;;;;;;;0.00;0.00;;;9.80;62.30;;;;;;4930916;28;20043;-62
2023/04/19 07:50:50;;;;;;;0.38;0.22;;;9.90;63.70;;;;;;4950402;28;20054;-62
2023/04/19 07:53:17;;;;;;;0.00;0.00;;;9.90;64.50;;;;;;4949958;28;20062;-62
2023/04/19 07:55:42;;;;;;;0.00;0.00;;;10.00;63.70;;;;;;4949602;28;20803;-63
2023/04/19 07:58:08;;;;;;;0.00;0.00;;;10.00;63.30;;;;;;4940275;28;20059;-61
2023/04/19 08:00:35;;;;;;;0.10;0.10;;;10.10;63.80;;;;;;4930556;29;20052;-62
2023/04/19 08:03:01;;;;;;;0.00;0.00;;;10.10;63.30;;;;;;4935157;29;20052;-63
2023/04/19 08:05:27;;;;;;;0.00;0.00;;;10.10;63.20;;;;;;4934127;29;20139;-62
2023/04/19 08:07:52;;;;;;;0.20;0.20;;;10.20;62.90;;;;;;4941614;28;20040;-62
2023/04/19 08:10:18;;;;;;;0.00;0.00;;;10.20;63.30;;;;;;4937027;29;20058;-62
2023/04/19 08:12:44;;;;;;;0.00;0.00;;;10.30;63.70;;;;;;4954304;29;20539;-64
2023/04/19 08:15:10;;;;;;;1.67;0.80;;;10.30;62.00;;;;;;4954097;28;20043;-62
2023/04/19 08:17:36;;;;;;;0.00;0.00;;;10.40;63.20;;;;;;4941731;28;20046;-63
2023/04/19 08:20:02;;;;;;;0.00;0.00;;;10.40;63.00;;;;;;4917608;29;20059;-63
2023/04/19 08:22:28;;;;;;;0.00;0.00;;;10.50;62.50;;;;;;4935085;29;20774;-62
2023/04/19 08:24:53;;;;;;;0.00;0.00;;;10.50;61.10;;;;;;4934959;29;20106;-63
2023/04/19 08:27:20;;;;;;;0.00;0.00;;;10.50;61.00;;;;;;4943949;28;20043;-62
2023/04/19 08:29:46;;;;;;;0.30;0.30;;;10.60;59.40;;;;;;4954170;28;20397;-63
2023/04/19 08:32:12;;;;;;;0.00;0.00;;;10.60;59.40;;;;;;4953623;29;20054;-62
2023/04/19 08:34:38;;;;;;;0.00;0.00;;;10.60;59.40;;;;;;4953852;28;20047;-62
2023/04/19 08:37:04;;;;;;;0.00;0.00;;;10.80;59.70;;;;;;4951240;28;20043;-61
2023/04/19 08:39:30;;;;;;;0.00;0.00;;;10.80;60.10;;;;;;4952812;28;20515;-63
2023/04/19 08:42:02;;;;;;;0.00;0.00;;;10.90;57.80;;;;;;4953086;28;20047;-62
2023/04/19 08:44:30;;;;;;;0.00;0.00;;;11.00;59.10;;;;;;4953057;29;20053;-63
2023/04/19 08:46:58;;;;;;;0.80;0.80;;;11.10;58.40;;;;;;4952437;28;20044;-62
2023/04/19 08:49:24;;;;;;;0.00;0.00;;;11.10;60.10;;;;;;4952741;29;20043;-62
2023/04/19 08:51:51;;;;;;;0.00;0.00;;;11.20;59.30;;;;;;4936274;29;20047;-62
2023/04/19 08:54:18;;;;;;;0.00;0.00;;;11.20;58.90;;;;;;4952196;28;20044;-62
2023/04/19 08:56:43;;;;;;;0.00;0.00;;;11.30;57.70;;;;;;4952023;28;20543;-63
2023/04/19 08:59:09;;;;;;;0.00;0.00;;;11.40;56.50;;;;;;4952856;29;20043;-63
2023/04/19 09:01:35;;;;;;;0.13;0.13;;;11.30;55.90;;;;;;4952313;28;20600;-62
2023/04/19 09:04:05;;;;;;;0.00;0.00;;;11.30;56.20;;;;;;4949408;29;20704;-62
2023/04/19 09:06:37;;;;;;;0.00;0.00;;;11.40;54.80;;;;;;4953005;28;20620;-62
2023/04/19 09:09:25;;;;;;;0.00;0.00;;;11.50;55.00;;;;;;4952984;28;20078;-62
2023/04/19 09:11:51;;;;;;;0.00;0.00;;;11.60;54.50;;;;;;4951028;28;20134;-62
2023/04/19 09:14:19;;;;;;;0.00;0.00;;;11.60;54.80;;;;;;4971473;23;20054;-62
2023/04/19 09:16:45;;;;;;;0.00;0.00;;;11.70;53.80;;;;;;4975550;28;20128;-63
2023/04/19 09:19:11;;;;;;;0.32;0.32;;;11.80;54.80;;;;;;4975815;28;20154;-63
2023/04/19 09:21:38;;;;;;;0.28;0.28;;;11.80;53.80;;;;;;4970774;28;20077;-62
2023/04/19 09:24:04;;;;;;;0.00;0.00;;;11.90;53.80;;;;;;4975180;28;20061;-63
2023/04/19 09:26:29;;;;;;;0.00;0.00;;;11.90;55.10;;;;;;4958701;28;20105;-62
2023/04/19 09:29:01;;;;;;;0.00;0.00;;;12.00;53.20;;;;;;4974584;28;20090;-62
2023/04/19 09:31:28;;;;;;;0.10;0.10;;;12.00;52.10;;;;;;4957911;28;20542;-62
2023/04/19 09:33:54;;;;;;;0.00;0.00;;;12.00;51.60;;;;;;4957894;28;20046;-63
2023/04/19 09:36:30;;;;;;;0.35;0.35;;;12.10;54.50;;;;;;4978149;28;20050;-62
2023/04/19 09:38:56;;;;;;;0.00;0.00;;;12.10;55.30;;;;;;4975087;28;20059;-63
2023/04/19 09:41:22;;;;;;;0.00;0.00;;;12.20;55.60;;;;;;4957161;28;20083;-62
2023/04/19 09:43:48;;;;;;;0.00;0.00;;;12.30;56.10;;;;;;4978721;28;20042;-61
2023/04/19 09:46:33;;;;;;;0.00;0.00;;;12.40;55.30;;;;;;4984478;28;20034;-61
2023/04/19 09:49:21;;;;;;;0.00;0.00;;;12.60;55.10;;;;;;4955704;28;20074;-63
2023/04/19 09:51:52;;;;;;;0.00;0.00;;;12.60;52.40;;;;;;4971408;28;20042;-63
2023/04/19 09:54:20;;;;;;;0.00;0.00;;;12.60;52.00;;;;;;4971066;28;20058;-63
2023/04/19 09:56:46;;;;;;;0.00;0.00;;;12.60;52.10;;;;;;4971623;28;20134;-63
2023/04/19 09:59:12;;;;;;;0.00;0.00;;;12.60;54.00;;;;;;4953649;28;20054;-63
2023/04/19 10:01:46;;;;;;;0.00;0.00;;;12.60;54.40;;;;;;4954527;28;20096;-63
2023/04/19 10:04:20;;;;;;;0.00;0.00;;;12.70;53.20;;;;;;4970822;28;20504;-63
2023/04/19 10:06:48;;;;;;;0.00;0.00;;;12.70;51.50;;;;;;4980352;28;20112;-64
2023/04/19 10:09:14;;;;;;;0.00;0.00;;;12.60;52.40;;;;;;4967144;28;20105;-63
2023/04/19 10:11:42;;;;;;;0.00;0.00;;;12.60;51.40;;;;;;4983857;28;20050;-64
2023/04/19 10:14:10;;;;;;;0.10;0.10;;;12.70;51.20;;;;;;4988612;28;20188;-63
2023/04/19 10:16:37;;;;;;;0.00;0.00;;;12.60;51.30;;;;;;4976677;28;20499;-63
2023/04/19 10:19:07;;;;;;;0.05;0.05;;;12.60;51.70;;;;;;4979959;28;20104;-63
2023/04/19 10:21:33;;;;;;;0.00;0.00;;;12.60;52.50;;;;;;4989474;28;20049;-62
2023/04/19 10:24:00;;;;;;;0.00;0.00;;;12.60;52.20;;;;;;4970661;28;20086;-63
2023/04/19 10:26:26;;;;;;;0.00;0.00;;;12.70;53.10;;;;;;4970885;28;20043;-63
2023/04/19 10:28:56;;;;;;;0.00;0.00;;;12.70;52.20;;;;;;4970936;28;20428;-63
2023/04/19 10:31:25;;;;;;;0.00;0.00;;;12.80;51.70;;;;;;4978495;28;20068;-63
2023/04/19 10:33:51;;;;;;;1.15;1.08;;;12.80;52.00;;;;;;4984883;28;20042;-63
2023/04/19 10:36:17;;;;;;;0.00;0.00;;;12.90;51.60;;;;;;4977098;28;20487;-63
2023/04/19 10:38:54;;;;;;;0.00;0.00;;;13.00;50.00;;;;;;4963042;28;20492;-63
2023/04/19 10:41:21;;;;;;;0.00;0.00;;;13.00;50.00;;;;;;4975278;28;20523;-64
2023/04/19 10:44:07;;;;;;;0.00;0.00;;;13.00;51.50;;;;;;4980348;28;20915;-63
2023/04/19 10:46:34;;;;;;;0.00;0.00;;;13.10;49.80;;;;;;4979754;28;20061;-63
2023/04/19 10:49:03;;;;;;;0.00;0.00;;;13.10;49.40;;;;;;4977209;28;20423;-63
2023/04/19 10:51:35;;;;;;;0.00;0.00;;;13.10;49.60;;;;;;4973606;28;20065;-63
2023/04/19 10:54:02;;;;;;;0.00;0.00;;;13.20;48.30;;;;;;4971463;28;20408;-63
2023/04/19 10:56:34;;;;;;;0.00;0.00;;;13.20;47.90;;;;;;4962899;28;20516;-63
2023/04/19 10:59:13;;;;;;;0.00;0.00;;;13.20;47.90;;;;;;4973314;28;20050;-62
2023/04/19 11:01:43;;;;;;;0.00;0.00;;;13.20;49.00;;;;;;4973871;28;20559;-63
2023/04/19 11:04:20;;;;;;;0.00;0.00;;;13.30;47.20;;;;;;4977149;28;20504;-63
2023/04/19 11:06:52;;;;;;;0.00;0.00;;;13.30;48.10;;;;;;4977894;28;20109;-63
2023/04/19 11:09:24;;;;;;;0.17;0.17;;;13.40;46.70;;;;;;4987414;28;20053;-63
2023/04/19 11:11:56;;;;;;;0.00;0.00;;;13.40;47.70;;;;;;4989006;28;20102;-62
2023/04/19 11:14:22;;;;;;;0.10;0.10;;;13.40;48.30;;;;;;4956016;28;20085;-62
2023/04/19 11:16:49;;;;;;;0.00;0.00;;;13.40;48.70;;;;;;4988899;28;20085;-63
2023/04/19 11:19:23;;;;;;;0.00;0.00;;;13.50;48.90;;;;;;4987152;28;20056;-63
2023/04/19 11:21:49;;;;;;;0.00;0.00;;;13.60;49.70;;;;;;4987671;28;20085;-63
2023/04/19 11:24:17;;;;;;;0.00;0.00;;;13.60;47.40;;;;;;4978170;28;20055;-63
2023/04/19 11:26:43;;;;;;;1.45;0.57;;;13.60;47.70;;;;;;4988116;28;20046;-63
2023/04/19 11:29:09;;;;;;;0.13;0.13;;;13.70;49.80;;;;;;4987598;28;20081;-62
2023/04/19 11:31:35;;;;;;;0.00;0.00;;;13.80;48.00;;;;;;4988039;28;20042;-63
2023/04/19 11:34:02;;;;;;;0.38;0.38;;;13.80;46.70;;;;;;4988859;28;20109;-63
2023/04/19 11:36:27;;;;;;;0.00;0.00;;;13.70;46.00;;;;;;4990726;28;20046;-62
2023/04/19 11:38:53;;;;;;;0.00;0.00;;;13.70;48.40;;;;;;4992983;28;20495;-63
2023/04/19 11:41:19;;;;;;;0.10;0.10;;;13.80;48.50;;;;;;4990941;28;20418;-63
2023/04/19 11:43:45;;;;;;;0.00;0.00;;;13.80;48.60;;;;;;4991926;28;20089;-62
2023/04/19 11:46:12;;;;;;;0.00;0.00;;;14.00;48.20;;;;;;4991786;28;20049;-63
2023/04/19 11:48:52;;;;;;;0.00;0.00;;;14.00;47.30;;;;;;4990726;28;20411;-62
2023/04/19 11:51:18;;;;;;;0.00;0.00;;;14.00;47.80;;;;;;4989531;28;20466;-63
2023/04/19 11:53:44;;;;;;;0.00;0.00;;;14.00;48.30;;;;;;4991861;28;20038;-63
2023/04/19 11:56:09;;;;;;;0.00;0.00;;;14.00;47.00;;;;;;4990120;28;20054;-63
2023/04/19 11:58:44;;;;;;;0.15;0.15;;;14.00;45.70;;;;;;4991967;28;20046;-64
2023/04/19 12:01:13;;;;;;;0.00;0.00;;;14.00;47.80;;;;;;4991570;28;20050;-63
2023/04/19 12:03:46;;;;;;;0.00;0.00;;;14.00;48.70;;;;;;4991416;28;20043;-64
2023/04/19 12:06:13;;;;;;;0.00;0.00;;;14.10;48.20;;;;;;4989696;28;20542;-64
2023/04/19 12:08:47;;;;;;;0.00;0.00;;;14.10;47.00;;;;;;4990207;28;20569;-63
2023/04/19 12:11:13;;;;;;;0.00;0.00;;;14.10;47.70;;;;;;4991771;28;20210;-63
2023/04/19 12:13:39;;;;;;;0.00;0.00;;;14.00;48.70;;;;;;4991477;28;20122;-63
2023/04/19 12:16:08;;;;;;;0.35;0.28;;;14.10;47.30;;;;;;4987182;28;20078;-63
2023/04/19 12:18:44;;;;;;;0.20;0.20;;;14.10;46.70;;;;;;4991168;28;20058;-64
2023/04/19 12:21:22;;;;;;;0.00;0.00;;;14.10;47.00;;;;;;4991382;28;20113;-63
2023/04/19 12:23:47;;;;;;;1.27;1.17;;;13.90;47.10;;;;;;4988082;28;20161;-64
2023/04/19 12:26:13;;;;;;;0.00;0.00;;;13.90;47.80;;;;;;4969039;28;20125;-64
2023/04/19 12:28:38;;;;;;;0.00;0.00;;;14.10;47.80;;;;;;4973768;28;20077;-63
2023/04/19 12:31:04;;;;;;;0.00;0.00;;;14.10;46.10;;;;;;4990031;28;20085;-62
2023/04/19 12:33:30;;;;;;;0.00;0.00;;;14.00;46.00;;;;;;4988003;28;20035;-62
2023/04/19 12:35:55;;;;;;;0.00;0.00;;;13.80;48.40;;;;;;4978235;28;20078;-61
2023/04/19 12:38:21;;;;;;;0.00;0.00;;;13.60;49.00;;;;;;4990500;28;20039;-62
2023/04/19 12:40:47;;;;;;;0.00;0.00;;;13.60;49.30;;;;;;4982761;28;20035;-62
2023/04/19 12:43:12;;;;;;;0.00;0.00;;;13.50;49.10;;;;;;4964485;28;20031;-63
2023/04/19 12:45:38;;;;;;;0.00;0.00;;;13.40;47.40;;;;;;4974173;28;20053;-62
2023/04/19 12:48:03;;;;;;;0.68;0.68;;;13.40;47.70;;;;;;4986448;28;20054;-61
2023/04/19 12:50:29;;;;;;;0.00;0.00;;;13.30;48.90;;;;;;4991627;28;20034;-63